Taree Radio Station, New South Wales

3:00 AM AEST on September 01, 2015 (GMT +1000)
Taree | | Change Station
CLOSE
Current Station
Airport
Location: Taree,
Elevation: 39 ft
Nearby Weather Stations

Elev 39 ft 31.89 °S, 152.51 °E | Updated 1 hour ago

Clear
Clear
48 °F
Feels Like 48 °F
N
5
Wind Variable Wind from WSW

Today
High -- | Low -- °F
--% Chance of Precip.
Yesterday
High -- | Low -- °F
Precip. -- in
6:07 AM 5:33 PM
Waning Gibbous, 94% visible
Pressure 29.95 in
Visibility 6.2 miles
Clouds
Dew Point 45 °F
Humidity 87%
Rainfall 0.00 in
Snow Depth Not available.
UV Not available.
Pollen Not available.
Air Quality Not available.
Flu Activity Not available.
METAR YTRE 311600Z AUTO 25004KT 9999 // NCD 09/07 Q1014
Pressure 29.95 in
Visibility 6.2 miles
Clouds
Dew Point 45 °F
Humidity 87%
Rainfall 0.00 in
Snow Depth Not available.
UV Not available.
Pollen Not available.
Air Quality Not available.
Flu Activity Not available.
METAR YTRE 311600Z AUTO 25004KT 9999 // NCD 09/07 Q1014

10-Day Weather Forecast

×

Almanac

Astronomy

Sep. 01, 2015 Rise Set
Actual Time
Civil Twilight
Nautical Twilight
Astronomical Twilight
Moon
Length of Visible Light
Length of Day
Tomorrow will be .
, % of the Moon is Illuminated

Today's Extremes

Country Highs Country Lows

Community

WunderPhotos

Upload Photos

1,851,320 photos uploaded!

WunderBlogs® & News

Nearby

Air Quality

  Air Quality AQ Index Pollutant
Not available.

Snow Depth

Station Depth Elevation

Earthquake Activity

City Distance Mag. Time & Date
Minimum magnitude displayed is 2.5.

Coastal Water Temperatures

Place Temperature

Stations

Nearby Weather Stations

Station Location Temp. Windchill Dew Point Humidity Wind Precip. Elev Updated Type